ΕΜΥ, Εθνική Μετεωρολογική Υπηρεσία - Δελτία Καιρού, Προγνώσεις

ΑΕΡΟΝΑΥΤΙΛΙΑ

GREEK AIRPORTS CODES

TAF LGKC 060200Z 0603/0612 18020G38KT 9999 BKN018 BECMG 0610/0612 24015G30KT=

EUROPEAN AIRPORTS CODES

LOWW 060450Z 17005KT CAVOK 14/12 Q1007 NOSIG=